Time;durP1;ratioP1;P1;durP2;ratioP2;P2;SDS_P1;SDS_P2;PMS_P1;PMS_P2;Temp;Humidity;BMP_temperature;BMP_pressure;BME280_temperature;BME280_humidity;BME280_pressure;Samples;Min_cycle;Max_cycle;Signal;HPM_P1;HPM_P2
2023/11/26 00:00:25;;;;;;;3.20;1.57;;;4.30;63.40;;;;;;5062074;28;20721;-64
2023/11/26 00:02:52;;;;;;;2.60;1.50;;;4.30;63.40;;;;;;5063227;28;20289;-63
2023/11/26 00:05:20;;;;;;;3.53;1.10;;;4.30;63.40;;;;;;5066278;28;20351;-63
2023/11/26 00:07:48;;;;;;;4.40;1.40;;;4.30;63.20;;;;;;5063922;28;20213;-63
2023/11/26 00:10:15;;;;;;;2.10;1.33;;;4.30;62.80;;;;;;5064956;28;20193;-63
2023/11/26 00:12:42;;;;;;;4.20;1.60;;;4.30;63.10;;;;;;5060752;28;20651;-64
2023/11/26 00:15:11;;;;;;;2.27;1.43;;;4.30;62.10;;;;;;5068468;28;20209;-63
2023/11/26 00:17:39;;;;;;;2.10;1.10;;;4.40;61.90;;;;;;5066017;28;20201;-64
2023/11/26 00:20:06;;;;;;;3.23;1.33;;;4.40;61.90;;;;;;5068568;28;20264;-64
2023/11/26 00:22:33;;;;;;;1.27;1.10;;;4.40;61.90;;;;;;5069418;28;20696;-63
2023/11/26 00:25:00;;;;;;;3.37;1.30;;;4.40;61.80;;;;;;5063881;28;20223;-63
2023/11/26 00:27:27;;;;;;;1.77;1.20;;;4.40;61.80;;;;;;5068194;28;20217;-63
2023/11/26 00:29:55;;;;;;;4.90;1.80;;;4.30;61.90;;;;;;5065233;28;20239;-63
2023/11/26 00:32:22;;;;;;;2.30;1.20;;;4.40;62.10;;;;;;5063158;28;20256;-64
2023/11/26 00:34:49;;;;;;;2.17;1.40;;;4.30;62.20;;;;;;5067477;28;20259;-64
2023/11/26 00:37:17;;;;;;;3.57;1.20;;;4.30;62.50;;;;;;5066631;28;20209;-63
2023/11/26 00:39:44;;;;;;;1.80;1.10;;;4.20;62.60;;;;;;5066358;28;20206;-64
2023/11/26 00:42:11;;;;;;;2.67;0.83;;;4.20;62.80;;;;;;5065723;28;20215;-63
2023/11/26 00:44:38;;;;;;;1.27;1.10;;;4.20;63.10;;;;;;5068578;28;20278;-63
2023/11/26 00:47:05;;;;;;;2.17;1.00;;;4.10;63.40;;;;;;5068692;28;20286;-63
2023/11/26 00:49:33;;;;;;;1.33;0.90;;;4.00;63.60;;;;;;5038496;28;20532;-63
2023/11/26 00:52:00;;;;;;;1.63;1.10;;;4.00;63.90;;;;;;5066542;28;20592;-63
2023/11/26 00:54:28;;;;;;;2.80;1.17;;;3.90;64.00;;;;;;5049934;28;20232;-63
2023/11/26 00:56:55;;;;;;;2.40;1.53;;;3.90;64.20;;;;;;5046621;28;20589;-63
2023/11/26 00:59:24;;;;;;;1.10;1.00;;;3.80;64.20;;;;;;5059794;28;20193;-63
2023/11/26 01:01:51;;;;;;;2.23;1.37;;;3.80;64.20;;;;;;5060767;28;20227;-63
2023/11/26 01:04:18;;;;;;;1.80;1.20;;;3.80;64.10;;;;;;5053177;28;20238;-63
2023/11/26 01:06:45;;;;;;;2.33;1.30;;;3.80;64.00;;;;;;5060928;28;21099;-63
2023/11/26 01:09:12;;;;;;;4.37;1.23;;;3.80;63.90;;;;;;5053628;28;20205;-63
2023/11/26 01:11:39;;;;;;;0.93;0.80;;;3.70;63.70;;;;;;5066517;28;20252;-63
2023/11/26 01:14:07;;;;;;;1.60;1.23;;;3.80;64.00;;;;;;5055124;28;20214;-63
2023/11/26 01:16:35;;;;;;;1.73;1.10;;;3.80;64.00;;;;;;5063701;28;20542;-63
2023/11/26 01:19:02;;;;;;;2.53;1.60;;;3.80;64.40;;;;;;5061558;28;20238;-63
2023/11/26 01:21:30;;;;;;;3.33;1.27;;;3.90;63.60;;;;;;5057582;28;20250;-63
2023/11/26 01:23:57;;;;;;;1.97;1.20;;;3.90;63.80;;;;;;5056608;28;20205;-63
2023/11/26 01:26:24;;;;;;;1.47;1.13;;;3.80;64.10;;;;;;5063325;28;20212;-63
2023/11/26 01:28:52;;;;;;;1.00;0.90;;;3.80;64.10;;;;;;5047482;28;20264;-63
2023/11/26 01:31:19;;;;;;;2.57;1.60;;;3.80;64.00;;;;;;5032071;28;20242;-62
2023/11/26 01:33:47;;;;;;;2.00;1.33;;;3.70;63.90;;;;;;5052385;28;20694;-62
2023/11/26 01:36:14;;;;;;;2.37;1.53;;;3.70;63.60;;;;;;5066608;28;20226;-63
2023/11/26 01:38:41;;;;;;;2.93;1.70;;;3.70;63.50;;;;;;5060588;28;20547;-63
2023/11/26 01:41:08;;;;;;;1.40;1.30;;;3.60;63.80;;;;;;5063877;28;20194;-63
2023/11/26 01:43:35;;;;;;;2.43;1.33;;;3.70;64.20;;;;;;5063813;28;20516;-63
2023/11/26 01:46:12;;;;;;;3.50;1.43;;;3.60;64.80;;;;;;5063058;28;20273;-63
2023/11/26 01:48:41;;;;;;;1.83;1.43;;;3.60;65.70;;;;;;5060042;28;20223;-63
2023/11/26 01:51:13;;;;;;;1.43;1.23;;;3.50;66.10;;;;;;5046275;28;20209;-63
2023/11/26 01:53:45;;;;;;;3.17;1.30;;;3.50;66.60;;;;;;5064553;28;20212;-63
2023/11/26 01:56:13;;;;;;;4.37;1.77;;;3.50;66.80;;;;;;5060201;28;20292;-63
2023/11/26 01:58:41;;;;;;;2.13;1.57;;;3.40;67.10;;;;;;5053283;28;20243;-63
2023/11/26 02:01:10;;;;;;;2.13;1.20;;;3.40;67.20;;;;;;5048312;28;20216;-63
2023/11/26 02:03:37;;;;;;;2.73;1.70;;;3.30;67.10;;;;;;5053007;28;20209;-63
2023/11/26 02:06:05;;;;;;;3.40;1.40;;;3.30;66.90;;;;;;5064228;28;20214;-63
2023/11/26 02:08:33;;;;;;;3.23;1.90;;;3.20;66.90;;;;;;5049135;28;20293;-63
2023/11/26 02:11:00;;;;;;;1.77;1.30;;;3.20;67.40;;;;;;5067118;28;20576;-63
2023/11/26 02:13:29;;;;;;;3.73;1.83;;;3.20;67.90;;;;;;5057554;28;20201;-63
2023/11/26 02:15:56;;;;;;;2.07;1.20;;;3.20;68.30;;;;;;5065009;28;20204;-63
2023/11/26 02:18:25;;;;;;;3.37;1.73;;;3.10;68.40;;;;;;5043752;28;20662;-63
2023/11/26 02:20:52;;;;;;;1.93;1.10;;;3.10;68.60;;;;;;5057728;28;20658;-63
2023/11/26 02:23:19;;;;;;;4.33;1.20;;;3.10;68.60;;;;;;5052678;28;20205;-63
2023/11/26 02:25:46;;;;;;;1.03;0.97;;;3.10;68.60;;;;;;5048167;28;20286;-63
2023/11/26 02:28:13;;;;;;;1.63;1.20;;;3.10;68.70;;;;;;5054482;28;20215;-63
2023/11/26 02:30:40;;;;;;;1.00;0.90;;;3.10;68.80;;;;;;5063536;28;20200;-63
2023/11/26 02:33:07;;;;;;;1.87;0.80;;;3.10;68.70;;;;;;5057613;28;20204;-63
2023/11/26 02:35:34;;;;;;;2.40;0.90;;;3.20;68.70;;;;;;5062379;28;20267;-63
2023/11/26 02:38:02;;;;;;;1.20;0.90;;;3.20;68.50;;;;;;5053741;28;20297;-63
2023/11/26 02:40:30;;;;;;;1.73;1.00;;;3.20;68.30;;;;;;5065999;28;20208;-63
2023/11/26 02:42:59;;;;;;;1.50;1.03;;;3.20;68.10;;;;;;5069823;28;20312;-63
2023/11/26 02:45:26;;;;;;;1.67;1.17;;;3.20;67.90;;;;;;5065849;28;20246;-63
2023/11/26 02:47:53;;;;;;;1.13;0.93;;;3.20;67.90;;;;;;5065008;28;20586;-63
2023/11/26 02:50:20;;;;;;;1.67;1.10;;;3.30;67.80;;;;;;5064446;28;20280;-63
2023/11/26 02:52:47;;;;;;;1.40;1.10;;;3.30;67.80;;;;;;5065205;28;20224;-63
2023/11/26 02:55:14;;;;;;;2.20;1.13;;;3.30;67.90;;;;;;5057572;28;20292;-63
2023/11/26 02:57:41;;;;;;;2.27;1.17;;;3.20;67.90;;;;;;5069143;28;20243;-63
2023/11/26 03:00:15;;;;;;;2.20;1.10;;;3.20;68.00;;;;;;5061554;28;20221;-63
2023/11/26 03:02:44;;;;;;;3.27;1.37;;;3.20;68.10;;;;;;5069451;28;20199;-63
2023/11/26 03:05:18;;;;;;;1.30;1.20;;;3.20;68.40;;;;;;5050472;28;20240;-63
2023/11/26 03:07:46;;;;;;;1.13;0.87;;;3.20;68.80;;;;;;5026281;28;20212;-64
2023/11/26 03:13:11;;;;;;;3.50;1.67;;;3.10;69.20;;;;;;5040599;28;20198;-63
2023/11/26 03:15:40;;;;;;;5.43;1.60;;;3.10;69.10;;;;;;5051916;28;20204;-63
2023/11/26 03:18:08;;;;;;;2.90;1.40;;;3.00;69.10;;;;;;5047205;28;20636;-64
2023/11/26 03:20:36;;;;;;;3.07;1.97;;;3.00;68.90;;;;;;5039516;28;20208;-63
2023/11/26 03:23:04;;;;;;;1.67;1.17;;;3.00;68.50;;;;;;5044888;28;20283;-63
2023/11/26 03:25:33;;;;;;;2.77;1.20;;;3.00;68.20;;;;;;5045884;28;20247;-63
2023/11/26 03:28:00;;;;;;;3.40;1.50;;;3.00;67.90;;;;;;5045346;28;20669;-63
2023/11/26 03:30:27;;;;;;;1.93;1.37;;;3.00;67.70;;;;;;5042545;28;20631;-63
2023/11/26 03:32:55;;;;;;;2.53;1.23;;;3.00;67.70;;;;;;5048882;28;20666;-63
2023/11/26 03:35:22;;;;;;;2.03;1.10;;;3.00;67.70;;;;;;5042252;28;20276;-63
2023/11/26 03:37:49;;;;;;;0.83;0.80;;;2.90;67.80;;;;;;5043496;28;20197;-64
2023/11/26 03:40:16;;;;;;;0.87;0.73;;;2.90;67.80;;;;;;5049073;28;20206;-64
2023/11/26 03:42:44;;;;;;;3.70;0.80;;;3.00;67.60;;;;;;5062252;28;20242;-64
2023/11/26 03:45:12;;;;;;;0.87;0.60;;;3.00;67.50;;;;;;5050165;28;20257;-64
2023/11/26 03:47:40;;;;;;;1.07;0.70;;;3.00;67.30;;;;;;5042334;28;20320;-64
2023/11/26 03:50:10;;;;;;;0.60;0.60;;;3.00;67.10;;;;;;5042496;28;20268;-64
2023/11/26 03:52:38;;;;;;;1.17;0.73;;;3.00;67.00;;;;;;5049310;28;20228;-63
2023/11/26 03:55:07;;;;;;;0.63;0.60;;;3.10;66.90;;;;;;5050546;28;20225;-63
2023/11/26 03:57:35;;;;;;;3.80;0.80;;;3.10;66.80;;;;;;5036169;28;20293;-63
2023/11/26 04:00:07;;;;;;;1.00;0.70;;;3.10;66.80;;;;;;5044830;28;20206;-63
2023/11/26 04:02:40;;;;;;;2.00;0.67;;;3.10;66.90;;;;;;5045672;28;20204;-63
2023/11/26 04:05:08;;;;;;;1.27;0.80;;;3.10;66.90;;;;;;5058139;28;20271;-64
2023/11/26 04:07:36;;;;;;;1.03;0.57;;;3.10;66.90;;;;;;5067018;28;20666;-64
2023/11/26 04:10:08;;;;;;;0.80;0.80;;;3.10;67.00;;;;;;5062596;28;20569;-64
2023/11/26 04:12:39;;;;;;;1.63;0.70;;;3.10;67.10;;;;;;5066432;28;20262;-64
2023/11/26 04:15:06;;;;;;;1.60;0.70;;;3.10;67.30;;;;;;5067140;28;20631;-64
2023/11/26 04:17:34;;;;;;;0.60;0.57;;;3.10;67.60;;;;;;5068320;28;20256;-63
2023/11/26 04:20:05;;;;;;;3.23;1.07;;;3.10;67.90;;;;;;5068395;28;20291;-64
2023/11/26 04:22:33;;;;;;;1.03;0.60;;;3.10;68.00;;;;;;5046825;28;20192;-64
2023/11/26 04:25:00;;;;;;;1.33;0.40;;;3.10;68.30;;;;;;5053674;28;20635;-64
2023/11/26 04:27:27;;;;;;;1.90;1.03;;;3.00;68.30;;;;;;5053295;28;20217;-64
2023/11/26 04:29:54;;;;;;;1.30;0.50;;;3.00;68.50;;;;;;5063479;28;20209;-63
2023/11/26 04:32:21;;;;;;;0.40;0.40;;;3.00;68.50;;;;;;5061035;28;20192;-64
2023/11/26 04:34:48;;;;;;;0.90;0.63;;;3.00;68.30;;;;;;5065448;28;20196;-64
2023/11/26 04:37:15;;;;;;;0.47;0.40;;;3.10;68.00;;;;;;5046989;28;20633;-64
2023/11/26 04:39:43;;;;;;;2.17;0.80;;;3.10;67.60;;;;;;5067362;28;20228;-63
2023/11/26 04:42:10;;;;;;;0.30;0.30;;;3.20;67.30;;;;;;5069028;28;20282;-64
2023/11/26 04:44:38;;;;;;;0.40;0.40;;;3.20;67.20;;;;;;5062180;28;20224;-64
2023/11/26 04:47:05;;;;;;;0.50;0.50;;;3.20;67.20;;;;;;5057961;28;20217;-64
2023/11/26 04:49:32;;;;;;;0.60;0.50;;;3.20;67.30;;;;;;5065800;28;20195;-64
2023/11/26 04:51:59;;;;;;;0.40;0.40;;;3.30;67.40;;;;;;5066600;28;20211;-64
2023/11/26 04:54:28;;;;;;;0.73;0.70;;;3.30;67.60;;;;;;5067773;28;21103;-64
2023/11/26 04:56:56;;;;;;;0.60;0.60;;;3.30;67.70;;;;;;5067955;28;20204;-63
2023/11/26 04:59:23;;;;;;;0.50;0.50;;;3.30;67.70;;;;;;5056130;28;20684;-63
2023/11/26 05:01:54;;;;;;;0.47;0.47;;;3.20;67.50;;;;;;5064270;28;20208;-64
2023/11/26 05:04:22;;;;;;;0.50;0.50;;;3.20;67.40;;;;;;5063228;28;20240;-64
2023/11/26 05:06:49;;;;;;;0.53;0.53;;;3.20;67.40;;;;;;5056199;28;20236;-64
2023/11/26 05:09:16;;;;;;;0.50;0.50;;;3.20;67.40;;;;;;5063737;28;20216;-64
2023/11/26 05:11:46;;;;;;;0.30;0.30;;;3.20;67.40;;;;;;5056298;28;20271;-64
2023/11/26 05:14:13;;;;;;;0.57;0.50;;;3.20;67.40;;;;;;5065876;28;20205;-64
2023/11/26 05:16:41;;;;;;;1.97;0.70;;;3.20;67.50;;;;;;5064188;28;20540;-64
2023/11/26 05:19:08;;;;;;;0.73;0.50;;;3.20;67.70;;;;;;5046678;28;20299;-63
2023/11/26 05:21:35;;;;;;;0.87;0.87;;;3.20;67.70;;;;;;5063788;28;20204;-64
2023/11/26 05:24:04;;;;;;;0.60;0.57;;;3.20;67.80;;;;;;5061825;28;20200;-63
2023/11/26 05:26:32;;;;;;;1.37;1.07;;;3.20;67.90;;;;;;5060377;28;20683;-63
2023/11/26 05:28:59;;;;;;;1.47;0.90;;;3.20;67.90;;;;;;5065978;28;20632;-63
2023/11/26 05:31:26;;;;;;;1.70;1.00;;;3.20;67.90;;;;;;5064283;28;20209;-63
2023/11/26 05:33:54;;;;;;;1.47;0.90;;;3.20;67.90;;;;;;5064477;28;20192;-63
2023/11/26 05:36:23;;;;;;;2.43;1.10;;;3.20;67.80;;;;;;5061249;28;20263;-63
2023/11/26 05:38:50;;;;;;;1.00;0.90;;;3.20;67.70;;;;;;5063630;28;20211;-64
2023/11/26 05:41:19;;;;;;;0.87;0.63;;;3.30;67.20;;;;;;5062852;28;20217;-64
2023/11/26 05:43:47;;;;;;;1.90;1.10;;;3.30;66.40;;;;;;5065343;28;20508;-63
2023/11/26 05:46:14;;;;;;;1.00;0.60;;;3.40;66.30;;;;;;5064496;28;20220;-63
2023/11/26 05:48:41;;;;;;;0.50;0.50;;;3.40;66.60;;;;;;5059931;28;20194;-63
2023/11/26 05:51:09;;;;;;;0.67;0.67;;;3.40;66.80;;;;;;5060733;28;20212;-63
2023/11/26 05:53:36;;;;;;;1.13;0.90;;;3.40;66.80;;;;;;5066247;28;20185;-63
2023/11/26 05:56:07;;;;;;;0.50;0.50;;;3.40;67.00;;;;;;5063355;28;20200;-63
2023/11/26 05:58:34;;;;;;;0.67;0.47;;;3.40;67.30;;;;;;5053076;28;20262;-63
2023/11/26 06:01:01;;;;;;;2.87;0.60;;;3.40;67.60;;;;;;5063102;28;20281;-63
2023/11/26 06:03:28;;;;;;;1.00;0.73;;;3.40;67.80;;;;;;5062258;28;20200;-64
2023/11/26 06:05:55;;;;;;;0.63;0.50;;;3.30;67.90;;;;;;5063321;28;20232;-63
2023/11/26 06:08:22;;;;;;;0.77;0.57;;;3.30;67.90;;;;;;5061378;28;20300;-63
2023/11/26 06:10:49;;;;;;;3.63;0.80;;;3.30;67.80;;;;;;5064149;28;20197;-63
2023/11/26 06:13:16;;;;;;;0.40;0.40;;;3.30;67.80;;;;;;5057631;28;20615;-63
2023/11/26 06:15:43;;;;;;;0.30;0.30;;;3.30;68.00;;;;;;5059936;28;21566;-63
2023/11/26 06:18:10;;;;;;;1.13;0.80;;;3.20;68.00;;;;;;5063457;28;20648;-64
2023/11/26 06:20:37;;;;;;;0.50;0.50;;;3.30;68.20;;;;;;5043152;28;20204;-63
2023/11/26 06:23:04;;;;;;;2.00;0.70;;;3.20;68.20;;;;;;5058132;28;20271;-63
2023/11/26 06:25:31;;;;;;;0.93;0.73;;;3.20;68.30;;;;;;5063352;28;20599;-63
2023/11/26 06:27:58;;;;;;;1.00;0.80;;;3.20;68.10;;;;;;5048403;28;20230;-63
2023/11/26 06:30:25;;;;;;;1.70;0.97;;;3.20;67.70;;;;;;5054440;28;20194;-62
2023/11/26 06:32:53;;;;;;;0.67;0.50;;;3.30;67.50;;;;;;5062497;28;20202;-63
2023/11/26 06:35:21;;;;;;;2.63;0.70;;;3.30;67.40;;;;;;5064518;28;20284;-63
2023/11/26 06:37:48;;;;;;;0.50;0.50;;;3.40;67.10;;;;;;5060355;28;20288;-63
2023/11/26 06:40:15;;;;;;;0.50;0.50;;;3.50;66.10;;;;;;5062463;28;20540;-63
2023/11/26 06:42:43;;;;;;;0.83;0.70;;;3.60;65.70;;;;;;5064139;28;20232;-63
2023/11/26 06:45:11;;;;;;;3.47;0.70;;;3.70;65.50;;;;;;5064243;28;20205;-63
2023/11/26 06:47:38;;;;;;;1.10;1.00;;;3.80;65.10;;;;;;5057806;28;20301;-63
2023/11/26 06:50:06;;;;;;;0.70;0.60;;;3.90;63.00;;;;;;5064571;28;20518;-63
2023/11/26 06:52:34;;;;;;;1.50;0.80;;;4.10;62.70;;;;;;5062579;28;20202;-63
2023/11/26 06:55:01;;;;;;;1.27;0.83;;;4.20;61.90;;;;;;5053706;28;20197;-63
2023/11/26 06:57:29;;;;;;;2.63;0.90;;;4.40;61.50;;;;;;5043541;28;20213;-63
2023/11/26 06:59:56;;;;;;;1.03;0.80;;;4.60;60.60;;;;;;5059629;28;20202;-63
2023/11/26 07:02:23;;;;;;;1.30;0.73;;;4.70;60.00;;;;;;5062440;28;20233;-63
2023/11/26 07:04:50;;;;;;;0.80;0.80;;;4.80;59.50;;;;;;5068943;28;20244;-63
2023/11/26 07:07:20;;;;;;;0.80;0.80;;;4.80;58.90;;;;;;5062250;28;20257;-63
2023/11/26 07:09:48;;;;;;;1.87;1.00;;;4.90;58.80;;;;;;5058963;28;20194;-63
2023/11/26 07:12:15;;;;;;;5.70;1.00;;;4.90;58.50;;;;;;5042473;28;20635;-63
2023/11/26 07:14:43;;;;;;;3.43;0.90;;;5.00;58.40;;;;;;5059672;28;20208;-63
2023/11/26 07:17:12;;;;;;;1.23;0.93;;;5.00;58.70;;;;;;5059407;28;20283;-63
2023/11/26 07:19:44;;;;;;;1.10;1.00;;;5.10;58.60;;;;;;5061776;28;20198;-63
2023/11/26 07:22:13;;;;;;;1.90;0.93;;;5.10;58.40;;;;;;5064674;28;20193;-63
2023/11/26 07:24:41;;;;;;;0.93;0.90;;;5.20;58.60;;;;;;5049280;28;20639;-62
2023/11/26 07:27:08;;;;;;;1.17;0.80;;;5.20;59.00;;;;;;5060300;28;20344;-63
2023/11/26 07:29:36;;;;;;;2.57;0.90;;;5.20;59.70;;;;;;5062949;28;20266;-63
2023/11/26 07:32:03;;;;;;;0.93;0.90;;;5.20;60.30;;;;;;5060579;28;20212;-63
2023/11/26 07:34:30;;;;;;;1.17;1.00;;;5.30;60.90;;;;;;5067311;28;20266;-63
2023/11/26 07:36:58;;;;;;;1.10;1.00;;;5.20;61.40;;;;;;5063655;28;20212;-63
2023/11/26 07:39:26;;;;;;;2.20;1.23;;;5.30;61.70;;;;;;5064697;28;20598;-63
2023/11/26 07:41:53;;;;;;;1.30;0.83;;;5.30;61.80;;;;;;5066299;28;20231;-63
2023/11/26 07:44:20;;;;;;;1.30;1.20;;;5.30;61.90;;;;;;5069975;28;20209;-63
2023/11/26 07:46:47;;;;;;;2.60;1.10;;;5.40;61.70;;;;;;5060338;28;20275;-63
2023/11/26 07:49:15;;;;;;;3.27;1.47;;;5.50;61.30;;;;;;5043593;28;20229;-64
2023/11/26 07:51:41;;;;;;;2.30;1.20;;;5.50;60.50;;;;;;5067282;28;20194;-63
2023/11/26 07:54:09;;;;;;;1.67;1.00;;;5.60;60.30;;;;;;5070342;28;20198;-63
2023/11/26 07:56:49;;;;;;;1.70;1.30;;;5.70;60.70;;;;;;5067372;28;20205;-63
2023/11/26 07:59:16;;;;;;;2.00;1.20;;;5.70;61.30;;;;;;5071635;28;20677;-63
2023/11/26 08:01:49;;;;;;;1.00;0.90;;;5.80;61.80;;;;;;5064168;28;20272;-63
2023/11/26 08:04:18;;;;;;;1.97;1.30;;;5.80;62.30;;;;;;5064886;28;20237;-62
2023/11/26 08:06:49;;;;;;;2.30;1.07;;;5.90;62.60;;;;;;5067513;28;20194;-63
2023/11/26 08:09:16;;;;;;;2.73;1.50;;;5.90;62.80;;;;;;5063542;28;20289;-63
2023/11/26 08:11:45;;;;;;;1.57;1.10;;;6.00;63.00;;;;;;5067605;28;20280;-63
2023/11/26 08:14:13;;;;;;;1.47;1.20;;;6.00;63.10;;;;;;5045589;28;20239;-63
2023/11/26 08:16:41;;;;;;;1.67;1.03;;;6.10;63.00;;;;;;5067199;28;20193;-63
2023/11/26 08:19:16;;;;;;;1.93;0.90;;;6.10;62.80;;;;;;5045465;28;20221;-63
2023/11/26 08:21:44;;;;;;;0.80;0.80;;;6.20;62.70;;;;;;5066040;28;20627;-63
2023/11/26 08:24:15;;;;;;;1.03;0.93;;;6.30;62.60;;;;;;5064729;28;20210;-63
2023/11/26 08:26:46;;;;;;;1.57;1.10;;;6.40;62.50;;;;;;5043576;28;20263;-63
2023/11/26 08:29:16;;;;;;;1.37;1.23;;;6.40;62.40;;;;;;5068404;28;20580;-63
2023/11/26 08:31:44;;;;;;;2.60;1.07;;;6.50;62.20;;;;;;5063271;28;20202;-63
2023/11/26 08:34:15;;;;;;;1.27;1.13;;;6.60;62.20;;;;;;5065789;28;20889;-62
2023/11/26 08:36:43;;;;;;;3.93;1.37;;;6.70;62.00;;;;;;5068539;28;20640;-64
2023/11/26 08:39:25;;;;;;;4.37;2.57;;;6.80;61.30;;;;;;5060006;28;20237;-64
2023/11/26 08:41:54;;;;;;;2.73;1.50;;;6.90;61.00;;;;;;5068029;28;20199;-63
2023/11/26 08:44:21;;;;;;;1.50;1.20;;;7.00;61.00;;;;;;5068794;28;20644;-64
2023/11/26 08:46:48;;;;;;;1.40;1.13;;;7.00;61.00;;;;;;5067651;28;20206;-64
2023/11/26 08:49:20;;;;;;;1.77;1.50;;;7.10;61.20;;;;;;5068039;28;20245;-64
2023/11/26 08:51:47;;;;;;;1.43;1.20;;;7.20;61.40;;;;;;5066219;28;20701;-64
2023/11/26 08:54:15;;;;;;;1.67;1.27;;;7.30;61.20;;;;;;5048269;28;20202;-64
2023/11/26 08:56:42;;;;;;;2.07;1.40;;;7.40;61.20;;;;;;5064028;28;20192;-64
2023/11/26 08:59:09;;;;;;;1.80;1.43;;;7.40;61.30;;;;;;5066174;28;20507;-66
2023/11/26 09:01:37;;;;;;;3.90;1.77;;;7.50;61.20;;;;;;5062703;28;20291;-64
2023/11/26 09:04:05;;;;;;;5.30;1.83;;;7.60;61.00;;;;;;5065771;28;20230;-65
2023/11/26 09:06:32;;;;;;;6.23;1.13;;;7.70;61.10;;;;;;5068779;28;20233;-64
2023/11/26 09:09:00;;;;;;;2.17;1.10;;;7.80;61.20;;;;;;5063996;28;20223;-64
2023/11/26 09:11:27;;;;;;;3.83;1.40;;;7.90;61.00;;;;;;5058415;28;21049;-64
2023/11/26 09:13:54;;;;;;;4.13;1.43;;;7.90;60.90;;;;;;5065732;28;20659;-64
2023/11/26 09:16:21;;;;;;;2.30;1.20;;;8.00;60.60;;;;;;5062437;28;20195;-64
2023/11/26 09:18:48;;;;;;;1.70;1.37;;;8.10;60.70;;;;;;5065434;28;20221;-63
2023/11/26 09:21:16;;;;;;;1.50;0.90;;;8.20;60.50;;;;;;5061060;28;20527;-63
2023/11/26 09:23:44;;;;;;;0.97;0.90;;;8.30;60.30;;;;;;5063773;28;20203;-64
2023/11/26 09:26:14;;;;;;;1.80;1.50;;;8.40;60.10;;;;;;5052880;28;20211;-64
2023/11/26 09:28:41;;;;;;;6.40;1.40;;;8.40;60.10;;;;;;5061104;28;20284;-64
2023/11/26 09:31:10;;;;;;;3.27;1.37;;;8.50;60.10;;;;;;5063046;28;20200;-64
2023/11/26 09:33:37;;;;;;;2.27;1.23;;;8.60;59.80;;;;;;5065064;28;20256;-64
2023/11/26 09:36:05;;;;;;;3.07;1.40;;;8.60;59.50;;;;;;5060526;28;20218;-64
2023/11/26 09:38:32;;;;;;;1.60;1.20;;;8.70;59.60;;;;;;5068378;28;20237;-64
2023/11/26 09:40:59;;;;;;;1.83;1.30;;;8.80;59.80;;;;;;5064520;28;20212;-63
2023/11/26 09:43:31;;;;;;;1.33;1.10;;;8.90;59.80;;;;;;5050358;28;20198;-64
2023/11/26 09:45:58;;;;;;;1.83;1.07;;;9.00;59.70;;;;;;5064228;28;20243;-64
2023/11/26 09:48:26;;;;;;;1.83;1.03;;;9.00;59.40;;;;;;5038065;28;20214;-63
2023/11/26 09:50:53;;;;;;;1.83;1.00;;;9.10;58.80;;;;;;5066792;28;20513;-64
2023/11/26 09:53:21;;;;;;;1.70;1.30;;;9.30;58.60;;;;;;5052540;28;20591;-63
2023/11/26 09:55:49;;;;;;;3.13;1.80;;;9.30;58.20;;;;;;5062260;28;20193;-63
2023/11/26 09:58:17;;;;;;;2.97;1.03;;;9.40;57.90;;;;;;5046462;28;20642;-64
2023/11/26 10:00:44;;;;;;;1.53;1.30;;;9.50;58.10;;;;;;5065996;28;20194;-63
2023/11/26 10:03:11;;;;;;;1.93;0.93;;;9.60;58.20;;;;;;5069639;28;20204;-63
2023/11/26 10:05:38;;;;;;;1.73;1.10;;;9.60;57.90;;;;;;5046275;28;20240;-63
2023/11/26 10:08:27;;;;;;;1.60;1.10;;;9.70;57.80;;;;;;5042517;28;20270;-63
2023/11/26 10:10:54;;;;;;;1.57;1.00;;;9.80;57.50;;;;;;5039546;28;20199;-63
2023/11/26 10:13:21;;;;;;;1.20;1.00;;;9.90;57.40;;;;;;5045676;28;20602;-63
2023/11/26 10:15:50;;;;;;;1.43;1.00;;;10.00;57.00;;;;;;5046617;28;20238;-63
2023/11/26 10:18:18;;;;;;;5.83;1.27;;;10.00;56.40;;;;;;5041469;28;20202;-63
2023/11/26 10:21:02;;;;;;;3.70;1.20;;;10.10;56.70;;;;;;5043666;28;20288;-63
2023/11/26 10:23:35;;;;;;;1.57;1.10;;;10.20;56.20;;;;;;5040274;28;20258;-64
2023/11/26 10:26:04;;;;;;;1.67;1.10;;;10.30;56.10;;;;;;5059968;28;20204;-64
2023/11/26 10:28:31;;;;;;;0.80;0.80;;;10.30;56.20;;;;;;5042009;28;20222;-64
2023/11/26 10:31:07;;;;;;;1.57;0.80;;;10.40;56.00;;;;;;5043793;28;20198;-63
2023/11/26 10:33:34;;;;;;;2.73;0.90;;;10.50;55.70;;;;;;5040536;28;20205;-63
2023/11/26 10:36:01;;;;;;;1.23;0.97;;;10.50;55.40;;;;;;5047789;28;20543;-63
2023/11/26 10:38:34;;;;;;;2.40;1.03;;;10.60;55.30;;;;;;5045405;28;20201;-63
2023/11/26 10:41:03;;;;;;;2.30;1.17;;;10.70;55.20;;;;;;5048583;28;20591;-63
2023/11/26 10:43:31;;;;;;;1.80;1.20;;;10.80;55.10;;;;;;5044533;28;20297;-63
2023/11/26 10:46:12;;;;;;;1.60;1.10;;;10.90;54.80;;;;;;5039824;28;20288;-64
2023/11/26 10:48:47;;;;;;;1.83;0.80;;;11.00;54.60;;;;;;5047237;28;20233;-64
2023/11/26 10:51:24;;;;;;;0.73;0.73;;;11.10;54.30;;;;;;5048095;28;20205;-63
2023/11/26 10:54:13;;;;;;;2.67;0.93;;;11.20;54.30;;;;;;5043571;28;20205;-63
2023/11/26 10:56:44;;;;;;;1.93;1.00;;;11.30;54.00;;;;;;5042983;28;20200;-64
2023/11/26 10:59:17;;;;;;;1.13;0.90;;;11.40;53.80;;;;;;5042360;28;20542;-64
2023/11/26 11:01:45;;;;;;;4.03;0.97;;;11.50;53.60;;;;;;5045390;28;20582;-64
2023/11/26 11:04:14;;;;;;;0.90;0.90;;;11.60;53.50;;;;;;5051321;28;20694;-64
2023/11/26 11:06:43;;;;;;;0.80;0.80;;;11.70;53.20;;;;;;5063524;28;20298;-63
2023/11/26 11:09:17;;;;;;;1.23;0.80;;;11.80;52.90;;;;;;5066887;28;20661;-64
2023/11/26 11:11:58;;;;;;;3.43;1.07;;;11.90;53.20;;;;;;5061233;28;20547;-63
2023/11/26 11:14:27;;;;;;;1.73;0.90;;;12.00;53.60;;;;;;5048734;28;20631;-63
2023/11/26 11:16:54;;;;;;;1.20;0.93;;;12.20;53.30;;;;;;5069852;28;20681;-63
2023/11/26 11:19:50;;;;;;;4.23;1.87;;;12.30;52.70;;;;;;5066252;28;20251;-64
2023/11/26 11:22:18;;;;;;;2.57;1.00;;;12.40;52.60;;;;;;5067272;28;20210;-63
2023/11/26 11:24:45;;;;;;;1.53;1.00;;;12.50;52.80;;;;;;5064434;28;20194;-64
2023/11/26 11:27:13;;;;;;;1.17;0.90;;;12.60;52.50;;;;;;5067301;28;20205;-63
2023/11/26 11:29:40;;;;;;;0.83;0.80;;;12.70;52.50;;;;;;5066892;28;20220;-63
2023/11/26 11:32:07;;;;;;;1.20;1.00;;;12.80;52.60;;;;;;5066648;28;20194;-64
2023/11/26 11:34:34;;;;;;;1.13;0.90;;;12.90;52.30;;;;;;5065727;28;20198;-63
2023/11/26 11:37:02;;;;;;;1.57;1.00;;;13.00;51.70;;;;;;5066525;28;20215;-63
2023/11/26 11:39:49;;;;;;;2.30;1.20;;;13.00;50.80;;;;;;5065016;28;20202;-63
2023/11/26 11:42:27;;;;;;;0.70;0.70;;;13.10;50.70;;;;;;5070048;28;20296;-63
2023/11/26 11:44:56;;;;;;;1.50;0.80;;;13.20;50.70;;;;;;5069262;28;20209;-63
2023/11/26 11:47:41;;;;;;;1.47;0.87;;;13.30;50.70;;;;;;5065873;28;20197;-64
2023/11/26 11:50:09;;;;;;;1.27;0.73;;;13.40;50.80;;;;;;5066765;28;20638;-63
2023/11/26 11:52:38;;;;;;;2.17;1.40;;;13.40;50.60;;;;;;5066269;28;20194;-63
2023/11/26 11:55:26;;;;;;;1.43;0.77;;;13.40;50.20;;;;;;5066050;28;20228;-63
2023/11/26 11:57:54;;;;;;;0.90;0.70;;;13.50;50.30;;;;;;5063700;28;20198;-63
2023/11/26 12:00:21;;;;;;;3.43;0.90;;;13.60;50.80;;;;;;5062037;28;20227;-63
2023/11/26 12:02:49;;;;;;;4.50;0.70;;;13.60;50.50;;;;;;5064554;28;20642;-63
2023/11/26 12:05:27;;;;;;;0.70;0.60;;;13.70;50.80;;;;;;5049406;28;20233;-63
2023/11/26 12:07:56;;;;;;;0.60;0.60;;;13.80;50.00;;;;;;5044700;28;20701;-63
2023/11/26 12:10:25;;;;;;;1.23;0.70;;;13.80;49.90;;;;;;5046285;28;20645;-63
2023/11/26 12:13:08;;;;;;;0.93;0.70;;;13.80;49.70;;;;;;5044662;28;20237;-64
2023/11/26 12:15:39;;;;;;;1.70;0.60;;;13.90;49.60;;;;;;5047477;28;20267;-64
2023/11/26 12:18:07;;;;;;;1.00;0.90;;;13.80;49.20;;;;;;5045651;28;20201;-63
2023/11/26 12:20:34;;;;;;;1.23;0.77;;;13.90;48.90;;;;;;5047932;28;20210;-64
2023/11/26 12:23:01;;;;;;;0.80;0.80;;;13.90;48.70;;;;;;5047656;28;20663;-64
2023/11/26 12:25:30;;;;;;;2.33;0.80;;;13.90;48.90;;;;;;5039164;28;20210;-64
2023/11/26 12:28:02;;;;;;;0.83;0.73;;;13.90;49.00;;;;;;5045797;28;20225;-64
2023/11/26 12:30:30;;;;;;;2.40;1.03;;;14.00;49.30;;;;;;5048057;28;20285;-63
2023/11/26 12:32:58;;;;;;;0.67;0.67;;;14.00;49.30;;;;;;5051473;28;20221;-63
2023/11/26 12:35:27;;;;;;;0.90;0.60;;;14.00;49.20;;;;;;5043496;28;20199;-64
2023/11/26 12:37:59;;;;;;;0.80;0.80;;;14.00;49.10;;;;;;5046722;28;20198;-64
2023/11/26 12:40:31;;;;;;;0.63;0.63;;;14.00;49.00;;;;;;5044453;28;20256;-63
2023/11/26 12:42:58;;;;;;;0.80;0.80;;;14.00;48.40;;;;;;5045080;28;20231;-63
2023/11/26 12:45:25;;;;;;;0.67;0.67;;;14.00;48.50;;;;;;5047230;28;20693;-63
2023/11/26 12:47:56;;;;;;;0.73;0.70;;;14.00;48.70;;;;;;5042853;28;20213;-63
2023/11/26 12:50:24;;;;;;;0.90;0.70;;;14.00;48.90;;;;;;5044662;28;20195;-63
2023/11/26 12:52:52;;;;;;;1.73;0.73;;;14.00;49.40;;;;;;5045726;28;20599;-63
2023/11/26 12:55:19;;;;;;;2.37;0.83;;;14.00;49.70;;;;;;5044249;28;20198;-63
2023/11/26 12:57:46;;;;;;;0.70;0.70;;;13.90;47.30;;;;;;5049777;28;20197;-64
2023/11/26 13:00:14;;;;;;;1.00;0.80;;;13.90;47.70;;;;;;5047938;28;20237;-63
2023/11/26 13:02:48;;;;;;;0.60;0.60;;;13.90;47.80;;;;;;5043641;28;20637;-63
2023/11/26 13:05:26;;;;;;;2.03;0.90;;;13.80;48.00;;;;;;5059629;28;20260;-63